This is the latest recevied weather packets stored in our database for station/object AG1T-20. If no packets are shown the sender has not sent any weather packets the latest 1 day(s).
| Time | Temp. | Humidity | Pressure | Rain* | Wind** | Luminosity | Snow |
|---|---|---|---|---|---|---|---|
| 1778057405 | 6.67° C | 67% | 1017.6 hPa | 0 mm | - | 0 W/m² | - |
| 1778056805 | 7.22° C | 64% | 1017.6 hPa | 0 mm | - | 0 W/m² | - |
| 1778056205 | 7.78° C | 59% | 1017.6 hPa | 0 mm | - | 0 W/m² | - |
| 1778055605 | 7.78° C | 55% | 1017.6 hPa | 0 mm | - | 0 W/m² | - |
| 1778055005 | 7.78° C | 55% | 1017.6 hPa | 0 mm | - | 0 W/m² | - |
| 1778054405 | 8.33° C | 55% | 1017.6 hPa | 0 mm | - | 0 W/m² | - |
| 1778053805 | 8.33° C | 54% | 1015.9 hPa | 0 mm | - | 0 W/m² | - |
| 1778053205 | 7.78° C | 57% | 1015.9 hPa | 0 mm | - | 0 W/m² | - |
| 1778052605 | 8.89° C | 55% | 1015.9 hPa | 0 mm | - | 0 W/m² | - |
| 1778052005 | 9.44° C | 53% | 1015.9 hPa | 0 mm | - | 0 W/m² | - |
| 1778051405 | 8.33° C | 60% | 1015.9 hPa | 0 mm | - | 0 W/m² | - |
| 1778050805 | 7.78° C | 61% | 1015.9 hPa | 0 mm | - | 0 W/m² | - |
| 1778050205 | 8.89° C | 59% | 1014.2 hPa | 0 mm | - | 0 W/m² | - |
| 1778049605 | 10° C | 56% | 1014.2 hPa | 0 mm | - | 0 W/m² | - |
| 1778049005 | 10.56° C | 61% | 1014.2 hPa | 0 mm | - | 0 W/m² | - |
| 1778048405 | 10.56° C | 58% | 1014.2 hPa | 0 mm | - | 0 W/m² | - |
| 1778047805 | 11.11° C | 53% | 1014.2 hPa | 0 mm | - | 0 W/m² | - |
| 1778047205 | 11.67° C | 50% | 1014.2 hPa | 0 mm | - | 0 W/m² | - |
| 1778046605 | 12.22° C | 44% | 1013.4 hPa | 0 mm | - | 0 W/m² | - |
| 1778046005 | 12.78° C | 44% | 1013.4 hPa | 0 mm | - | 0 W/m² | - |
| 1778045405 | 12.78° C | 45% | 1013.4 hPa | 0 mm | - | 0 W/m² | - |
| 1778044805 | 12.78° C | 46% | 1013.4 hPa | 0 mm | - | 0 W/m² | - |
| 1778044205 | 11.11° C | 74% | 1013.4 hPa | 0 mm | - | 0 W/m² | - |
| 1778042405 | 11.67° C | 70% | 1012.9 hPa | 0 mm | - | 0 W/m² | - |
| 1778040605 | 11.67° C | 72% | 1012.9 hPa | 0 mm | - | 0 W/m² | - |
* Rain latest hour (hover to see other rain measurements)
** Current wind speed in m/s (hover to see current wind gust speed)